sensor_id;sensor_type;location;lat;lon;timestamp;temperature;humidity
19999;DHT22;10160;50.926;4.374;2022-11-13T00:02:11;11.00;99.90
19999;DHT22;10160;50.926;4.374;2022-11-13T00:04:37;10.80;99.90
19999;DHT22;10160;50.926;4.374;2022-11-13T00:07:02;10.70;99.90
19999;DHT22;10160;50.926;4.374;2022-11-13T00:09:28;10.70;99.90
19999;DHT22;10160;50.926;4.374;2022-11-13T00:11:53;10.70;99.90
19999;DHT22;10160;50.926;4.374;2022-11-13T00:14:19;10.80;99.90
19999;DHT22;10160;50.926;4.374;2022-11-13T00:16:45;10.80;99.90
19999;DHT22;10160;50.926;4.374;2022-11-13T00:19:10;10.60;99.90
19999;DHT22;10160;50.926;4.374;2022-11-13T00:21:36;10.60;99.90
19999;DHT22;10160;50.926;4.374;2022-11-13T00:24:02;10.60;99.90
19999;DHT22;10160;50.926;4.374;2022-11-13T00:26:29;10.40;99.90
19999;DHT22;10160;50.926;4.374;2022-11-13T00:28:57;10.50;99.90
19999;DHT22;10160;50.926;4.374;2022-11-13T00:31:23;10.40;99.90
19999;DHT22;10160;50.926;4.374;2022-11-13T00:33:49;10.40;99.90
19999;DHT22;10160;50.926;4.374;2022-11-13T00:36:23;10.50;99.90
19999;DHT22;10160;50.926;4.374;2022-11-13T00:38:49;10.50;99.90
19999;DHT22;10160;50.926;4.374;2022-11-13T00:41:15;10.50;99.90
19999;DHT22;10160;50.926;4.374;2022-11-13T00:43:41;10.40;99.90
19999;DHT22;10160;50.926;4.374;2022-11-13T00:46:08;10.40;99.90
19999;DHT22;10160;50.926;4.374;2022-11-13T00:48:34;10.30;99.90
19999;DHT22;10160;50.926;4.374;2022-11-13T00:51:01;10.30;99.90
19999;DHT22;10160;50.926;4.374;2022-11-13T00:53:26;10.20;99.90
19999;DHT22;10160;50.926;4.374;2022-11-13T00:55:52;10.50;99.90
19999;DHT22;10160;50.926;4.374;2022-11-13T00:58:18;10.70;99.90
19999;DHT22;10160;50.926;4.374;2022-11-13T01:00:45;10.70;99.90
19999;DHT22;10160;50.926;4.374;2022-11-13T01:03:12;10.80;99.90
19999;DHT22;10160;50.926;4.374;2022-11-13T01:05:41;10.80;99.90
19999;DHT22;10160;50.926;4.374;2022-11-13T01:08:08;10.70;99.90
19999;DHT22;10160;50.926;4.374;2022-11-13T01:10:38;10.60;99.90
19999;DHT22;10160;50.926;4.374;2022-11-13T01:13:04;10.70;99.90
19999;DHT22;10160;50.926;4.374;2022-11-13T01:15:30;10.70;99.90
19999;DHT22;10160;50.926;4.374;2022-11-13T01:17:55;10.80;99.90
19999;DHT22;10160;50.926;4.374;2022-11-13T01:20:22;10.50;99.90
19999;DHT22;10160;50.926;4.374;2022-11-13T01:22:48;10.60;99.90
19999;DHT22;10160;50.926;4.374;2022-11-13T01:25:14;10.50;99.90
19999;DHT22;10160;50.926;4.374;2022-11-13T01:27:40;10.60;99.90
19999;DHT22;10160;50.926;4.374;2022-11-13T01:30:06;10.60;99.90
19999;DHT22;10160;50.926;4.374;2022-11-13T01:32:32;10.60;99.90
19999;DHT22;10160;50.926;4.374;2022-11-13T01:34:58;10.60;99.90
19999;DHT22;10160;50.926;4.374;2022-11-13T01:37:24;10.70;99.90
19999;DHT22;10160;50.926;4.374;2022-11-13T01:39:49;10.70;99.90
19999;DHT22;10160;50.926;4.374;2022-11-13T01:42:16;10.80;99.90
19999;DHT22;10160;50.926;4.374;2022-11-13T01:44:56;10.80;99.90
19999;DHT22;10160;50.926;4.374;2022-11-13T01:47:22;10.30;99.90
19999;DHT22;10160;50.926;4.374;2022-11-13T01:49:52;10.30;99.90
19999;DHT22;10160;50.926;4.374;2022-11-13T01:52:23;10.30;99.90
19999;DHT22;10160;50.926;4.374;2022-11-13T01:54:52;10.20;99.90
19999;DHT22;10160;50.926;4.374;2022-11-13T01:57:19;10.30;99.90
19999;DHT22;10160;50.926;4.374;2022-11-13T01:59:54;10.30;99.90
19999;DHT22;10160;50.926;4.374;2022-11-13T02:02:21;10.30;99.90
19999;DHT22;10160;50.926;4.374;2022-11-13T02:04:47;10.30;99.90
19999;DHT22;10160;50.926;4.374;2022-11-13T02:07:14;10.40;99.90
19999;DHT22;10160;50.926;4.374;2022-11-13T02:09:45;10.40;99.90
19999;DHT22;10160;50.926;4.374;2022-11-13T02:12:15;10.30;99.90
19999;DHT22;10160;50.926;4.374;2022-11-13T02:14:51;10.10;99.90
19999;DHT22;10160;50.926;4.374;2022-11-13T02:17:22;10.10;99.90
19999;DHT22;10160;50.926;4.374;2022-11-13T02:19:52;10.20;99.90
19999;DHT22;10160;50.926;4.374;2022-11-13T02:22:28;10.30;99.90
19999;DHT22;10160;50.926;4.374;2022-11-13T02:24:56;10.30;99.90
19999;DHT22;10160;50.926;4.374;2022-11-13T02:27:43;10.20;99.90
19999;DHT22;10160;50.926;4.374;2022-11-13T02:30:12;10.00;99.90
19999;DHT22;10160;50.926;4.374;2022-11-13T02:32:42;9.80;99.90
19999;DHT22;10160;50.926;4.374;2022-11-13T02:35:08;9.70;99.90
19999;DHT22;10160;50.926;4.374;2022-11-13T02:37:34;9.40;99.90
19999;DHT22;10160;50.926;4.374;2022-11-13T02:39:59;9.00;99.90
19999;DHT22;10160;50.926;4.374;2022-11-13T02:42:25;9.10;99.90
19999;DHT22;10160;50.926;4.374;2022-11-13T02:44:51;8.90;99.90
19999;DHT22;10160;50.926;4.374;2022-11-13T02:47:16;9.00;99.90
19999;DHT22;10160;50.926;4.374;2022-11-13T02:49:42;9.30;99.90
19999;DHT22;10160;50.926;4.374;2022-11-13T02:52:07;9.40;99.90
19999;DHT22;10160;50.926;4.374;2022-11-13T02:54:33;9.30;99.90
19999;DHT22;10160;50.926;4.374;2022-11-13T02:56:59;9.50;99.90
19999;DHT22;10160;50.926;4.374;2022-11-13T02:59:24;9.50;99.90
19999;DHT22;10160;50.926;4.374;2022-11-13T03:01:50;9.50;99.90
19999;DHT22;10160;50.926;4.374;2022-11-13T03:04:15;9.60;99.90
19999;DHT22;10160;50.926;4.374;2022-11-13T03:06:41;9.60;99.90
19999;DHT22;10160;50.926;4.374;2022-11-13T03:09:06;9.50;99.90
19999;DHT22;10160;50.926;4.374;2022-11-13T03:11:32;9.40;99.90
19999;DHT22;10160;50.926;4.374;2022-11-13T03:13:58;9.40;99.90
19999;DHT22;10160;50.926;4.374;2022-11-13T03:16:23;9.30;99.90
19999;DHT22;10160;50.926;4.374;2022-11-13T03:18:49;9.20;99.90
19999;DHT22;10160;50.926;4.374;2022-11-13T03:21:15;9.30;99.90
19999;DHT22;10160;50.926;4.374;2022-11-13T03:23:41;9.30;99.90
19999;DHT22;10160;50.926;4.374;2022-11-13T03:26:12;9.30;99.90
19999;DHT22;10160;50.926;4.374;2022-11-13T03:28:37;9.10;99.90
19999;DHT22;10160;50.926;4.374;2022-11-13T03:31:03;9.00;99.90
19999;DHT22;10160;50.926;4.374;2022-11-13T03:33:29;8.60;99.90
19999;DHT22;10160;50.926;4.374;2022-11-13T03:35:55;8.70;99.90
19999;DHT22;10160;50.926;4.374;2022-11-13T03:38:21;8.70;99.90
19999;DHT22;10160;50.926;4.374;2022-11-13T03:40:47;8.70;99.90
19999;DHT22;10160;50.926;4.374;2022-11-13T03:43:13;8.70;99.90
19999;DHT22;10160;50.926;4.374;2022-11-13T03:45:39;8.60;99.90
19999;DHT22;10160;50.926;4.374;2022-11-13T03:48:05;8.80;99.90
19999;DHT22;10160;50.926;4.374;2022-11-13T03:50:30;8.90;99.90
19999;DHT22;10160;50.926;4.374;2022-11-13T03:52:56;8.80;99.90
19999;DHT22;10160;50.926;4.374;2022-11-13T03:55:21;8.90;99.90
19999;DHT22;10160;50.926;4.374;2022-11-13T03:57:47;8.90;99.90
19999;DHT22;10160;50.926;4.374;2022-11-13T04:00:14;9.00;99.90
19999;DHT22;10160;50.926;4.374;2022-11-13T04:02:39;9.00;99.90
19999;DHT22;10160;50.926;4.374;2022-11-13T04:05:06;9.20;99.90
19999;DHT22;10160;50.926;4.374;2022-11-13T04:07:32;9.20;99.90
19999;DHT22;10160;50.926;4.374;2022-11-13T04:09:58;9.30;99.90
19999;DHT22;10160;50.926;4.374;2022-11-13T04:12:23;9.30;99.90
19999;DHT22;10160;50.926;4.374;2022-11-13T04:14:49;9.30;99.90
19999;DHT22;10160;50.926;4.374;2022-11-13T04:17:15;8.90;99.90
19999;DHT22;10160;50.926;4.374;2022-11-13T04:19:40;8.70;99.90
19999;DHT22;10160;50.926;4.374;2022-11-13T04:22:06;8.70;99.90
19999;DHT22;10160;50.926;4.374;2022-11-13T04:24:32;8.90;99.90
19999;DHT22;10160;50.926;4.374;2022-11-13T04:26:57;9.10;99.90
19999;DHT22;10160;50.926;4.374;2022-11-13T04:29:23;9.30;99.90
19999;DHT22;10160;50.926;4.374;2022-11-13T04:31:48;9.40;99.90
19999;DHT22;10160;50.926;4.374;2022-11-13T04:34:14;9.50;99.90
19999;DHT22;10160;50.926;4.374;2022-11-13T04:36:39;9.30;99.90
19999;DHT22;10160;50.926;4.374;2022-11-13T04:39:06;9.30;99.90
19999;DHT22;10160;50.926;4.374;2022-11-13T04:41:32;9.00;99.90
19999;DHT22;10160;50.926;4.374;2022-11-13T04:44:16;8.80;99.90
19999;DHT22;10160;50.926;4.374;2022-11-13T04:46:42;8.80;99.90
19999;DHT22;10160;50.926;4.374;2022-11-13T04:49:07;9.00;99.90
19999;DHT22;10160;50.926;4.374;2022-11-13T04:51:33;8.90;99.90
19999;DHT22;10160;50.926;4.374;2022-11-13T04:53:59;8.80;99.90
19999;DHT22;10160;50.926;4.374;2022-11-13T04:56:24;8.40;99.90
19999;DHT22;10160;50.926;4.374;2022-11-13T04:58:51;8.30;99.90
19999;DHT22;10160;50.926;4.374;2022-11-13T05:01:17;8.50;99.90
19999;DHT22;10160;50.926;4.374;2022-11-13T05:03:42;8.60;99.90
19999;DHT22;10160;50.926;4.374;2022-11-13T05:06:09;8.90;99.90
19999;DHT22;10160;50.926;4.374;2022-11-13T05:08:35;9.00;99.90
19999;DHT22;10160;50.926;4.374;2022-11-13T05:11:02;9.10;99.90
19999;DHT22;10160;50.926;4.374;2022-11-13T05:13:33;9.00;99.90
19999;DHT22;10160;50.926;4.374;2022-11-13T05:16:00;8.90;99.90
19999;DHT22;10160;50.926;4.374;2022-11-13T05:18:25;8.90;99.90
19999;DHT22;10160;50.926;4.374;2022-11-13T05:20:51;8.90;99.90
19999;DHT22;10160;50.926;4.374;2022-11-13T05:23:16;8.70;99.90
19999;DHT22;10160;50.926;4.374;2022-11-13T05:25:42;8.70;99.90
19999;DHT22;10160;50.926;4.374;2022-11-13T05:28:08;8.80;99.90
19999;DHT22;10160;50.926;4.374;2022-11-13T05:30:33;8.90;99.90
19999;DHT22;10160;50.926;4.374;2022-11-13T05:32:59;8.90;99.90
19999;DHT22;10160;50.926;4.374;2022-11-13T05:35:25;8.90;99.90
19999;DHT22;10160;50.926;4.374;2022-11-13T05:37:50;8.70;99.90
19999;DHT22;10160;50.926;4.374;2022-11-13T05:40:16;8.80;99.90
19999;DHT22;10160;50.926;4.374;2022-11-13T05:42:41;8.80;99.90
19999;DHT22;10160;50.926;4.374;2022-11-13T05:45:07;8.80;99.90
19999;DHT22;10160;50.926;4.374;2022-11-13T05:47:33;8.70;99.90
19999;DHT22;10160;50.926;4.374;2022-11-13T05:49:59;8.60;99.90
19999;DHT22;10160;50.926;4.374;2022-11-13T05:52:24;8.60;99.90
19999;DHT22;10160;50.926;4.374;2022-11-13T05:54:50;8.60;99.90
19999;DHT22;10160;50.926;4.374;2022-11-13T05:57:15;8.50;99.90
19999;DHT22;10160;50.926;4.374;2022-11-13T05:59:41;8.50;99.90
19999;DHT22;10160;50.926;4.374;2022-11-13T06:02:07;8.40;99.90
19999;DHT22;10160;50.926;4.374;2022-11-13T06:04:32;8.40;99.90
19999;DHT22;10160;50.926;4.374;2022-11-13T06:06:58;8.30;99.90
19999;DHT22;10160;50.926;4.374;2022-11-13T06:09:24;8.30;99.90
19999;DHT22;10160;50.926;4.374;2022-11-13T06:11:49;8.30;99.90
19999;DHT22;10160;50.926;4.374;2022-11-13T06:14:15;8.20;99.90
19999;DHT22;10160;50.926;4.374;2022-11-13T06:16:40;8.00;99.90
19999;DHT22;10160;50.926;4.374;2022-11-13T06:19:08;8.10;99.90
19999;DHT22;10160;50.926;4.374;2022-11-13T06:21:37;8.20;99.90
19999;DHT22;10160;50.926;4.374;2022-11-13T06:24:04;8.40;99.90
19999;DHT22;10160;50.926;4.374;2022-11-13T06:26:32;8.20;99.90
19999;DHT22;10160;50.926;4.374;2022-11-13T06:28:59;8.20;99.90
19999;DHT22;10160;50.926;4.374;2022-11-13T06:31:27;8.20;99.90
19999;DHT22;10160;50.926;4.374;2022-11-13T06:33:53;8.10;99.90
19999;DHT22;10160;50.926;4.374;2022-11-13T06:36:24;8.20;99.90
19999;DHT22;10160;50.926;4.374;2022-11-13T06:38:50;8.10;99.90
19999;DHT22;10160;50.926;4.374;2022-11-13T06:41:18;8.10;99.90
19999;DHT22;10160;50.926;4.374;2022-11-13T06:43:44;8.10;99.90
19999;DHT22;10160;50.926;4.374;2022-11-13T06:46:21;8.20;99.90
19999;DHT22;10160;50.926;4.374;2022-11-13T06:48:47;8.20;99.90
19999;DHT22;10160;50.926;4.374;2022-11-13T06:51:16;8.30;99.90
19999;DHT22;10160;50.926;4.374;2022-11-13T06:53:42;8.20;99.90
19999;DHT22;10160;50.926;4.374;2022-11-13T06:56:08;8.20;99.90
19999;DHT22;10160;50.926;4.374;2022-11-13T06:58:35;8.20;99.90
19999;DHT22;10160;50.926;4.374;2022-11-13T07:01:15;8.10;99.90
19999;DHT22;10160;50.926;4.374;2022-11-13T07:03:41;8.20;99.90
19999;DHT22;10160;50.926;4.374;2022-11-13T07:06:19;8.20;99.90
19999;DHT22;10160;50.926;4.374;2022-11-13T07:08:46;7.90;99.90
19999;DHT22;10160;50.926;4.374;2022-11-13T07:11:15;7.70;99.90
19999;DHT22;10160;50.926;4.374;2022-11-13T07:13:41;7.60;99.90
19999;DHT22;10160;50.926;4.374;2022-11-13T07:16:08;7.80;99.90
19999;DHT22;10160;50.926;4.374;2022-11-13T07:18:34;7.80;99.90
19999;DHT22;10160;50.926;4.374;2022-11-13T07:21:05;7.90;99.90
19999;DHT22;10160;50.926;4.374;2022-11-13T07:23:32;7.90;99.90
19999;DHT22;10160;50.926;4.374;2022-11-13T07:25:58;8.10;99.90
19999;DHT22;10160;50.926;4.374;2022-11-13T07:28:23;8.10;99.90
19999;DHT22;10160;50.926;4.374;2022-11-13T07:30:49;8.10;99.90
19999;DHT22;10160;50.926;4.374;2022-11-13T07:33:14;8.20;99.90
19999;DHT22;10160;50.926;4.374;2022-11-13T07:35:40;8.20;99.90
19999;DHT22;10160;50.926;4.374;2022-11-13T07:38:06;8.20;99.90
19999;DHT22;10160;50.926;4.374;2022-11-13T07:40:31;8.30;99.90
19999;DHT22;10160;50.926;4.374;2022-11-13T07:43:01;8.40;99.90
19999;DHT22;10160;50.926;4.374;2022-11-13T07:45:27;8.50;99.90
19999;DHT22;10160;50.926;4.374;2022-11-13T07:47:57;8.50;99.90
19999;DHT22;10160;50.926;4.374;2022-11-13T07:50:24;8.60;99.90
19999;DHT22;10160;50.926;4.374;2022-11-13T07:52:55;8.60;99.90
19999;DHT22;10160;50.926;4.374;2022-11-13T07:55:20;8.60;99.90
19999;DHT22;10160;50.926;4.374;2022-11-13T07:57:46;8.50;99.90
19999;DHT22;10160;50.926;4.374;2022-11-13T08:00:12;8.50;99.90
19999;DHT22;10160;50.926;4.374;2022-11-13T08:02:38;8.60;99.90
19999;DHT22;10160;50.926;4.374;2022-11-13T08:05:03;8.70;99.90
19999;DHT22;10160;50.926;4.374;2022-11-13T08:07:29;8.80;99.90
19999;DHT22;10160;50.926;4.374;2022-11-13T08:09:55;8.90;99.90
19999;DHT22;10160;50.926;4.374;2022-11-13T08:12:20;8.90;99.90
19999;DHT22;10160;50.926;4.374;2022-11-13T08:14:46;9.00;99.90
19999;DHT22;10160;50.926;4.374;2022-11-13T08:17:12;9.00;99.90
19999;DHT22;10160;50.926;4.374;2022-11-13T08:19:37;9.10;99.90
19999;DHT22;10160;50.926;4.374;2022-11-13T08:22:03;8.90;99.90
19999;DHT22;10160;50.926;4.374;2022-11-13T08:24:28;8.90;99.90
19999;DHT22;10160;50.926;4.374;2022-11-13T08:26:54;9.00;99.90
19999;DHT22;10160;50.926;4.374;2022-11-13T08:29:19;9.10;99.90
19999;DHT22;10160;50.926;4.374;2022-11-13T08:31:45;9.10;99.90
19999;DHT22;10160;50.926;4.374;2022-11-13T08:34:11;9.10;99.90
19999;DHT22;10160;50.926;4.374;2022-11-13T08:36:36;9.20;99.90
19999;DHT22;10160;50.926;4.374;2022-11-13T08:39:02;9.20;99.90
19999;DHT22;10160;50.926;4.374;2022-11-13T08:41:27;9.20;99.90
19999;DHT22;10160;50.926;4.374;2022-11-13T08:43:53;9.30;99.90
19999;DHT22;10160;50.926;4.374;2022-11-13T08:46:19;9.30;99.90
19999;DHT22;10160;50.926;4.374;2022-11-13T08:48:44;9.30;99.90
19999;DHT22;10160;50.926;4.374;2022-11-13T08:51:10;9.10;99.90
19999;DHT22;10160;50.926;4.374;2022-11-13T08:53:35;9.00;99.90
19999;DHT22;10160;50.926;4.374;2022-11-13T08:56:01;9.10;99.90
19999;DHT22;10160;50.926;4.374;2022-11-13T08:58:27;9.20;99.90
19999;DHT22;10160;50.926;4.374;2022-11-13T09:00:53;9.30;99.90
19999;DHT22;10160;50.926;4.374;2022-11-13T09:03:23;9.40;99.90
19999;DHT22;10160;50.926;4.374;2022-11-13T09:05:49;9.50;99.90
19999;DHT22;10160;50.926;4.374;2022-11-13T09:08:14;9.60;99.90
19999;DHT22;10160;50.926;4.374;2022-11-13T09:10:40;9.70;99.90
19999;DHT22;10160;50.926;4.374;2022-11-13T09:13:05;9.80;99.90
19999;DHT22;10160;50.926;4.374;2022-11-13T09:15:33;9.90;99.90
19999;DHT22;10160;50.926;4.374;2022-11-13T09:18:02;10.00;99.90
19999;DHT22;10160;50.926;4.374;2022-11-13T09:20:29;10.20;99.90
19999;DHT22;10160;50.926;4.374;2022-11-13T09:22:56;10.30;99.90
19999;DHT22;10160;50.926;4.374;2022-11-13T09:25:22;10.40;99.90
19999;DHT22;10160;50.926;4.374;2022-11-13T09:27:55;10.60;99.90
19999;DHT22;10160;50.926;4.374;2022-11-13T09:30:22;10.70;99.90
19999;DHT22;10160;50.926;4.374;2022-11-13T09:32:52;10.90;99.90
19999;DHT22;10160;50.926;4.374;2022-11-13T09:35:18;10.90;99.90
19999;DHT22;10160;50.926;4.374;2022-11-13T09:38:08;10.80;99.90
19999;DHT22;10160;50.926;4.374;2022-11-13T09:43:38;11.00;99.90
19999;DHT22;10160;50.926;4.374;2022-11-13T09:46:10;10.90;99.90
19999;DHT22;10160;50.926;4.374;2022-11-13T09:48:40;10.80;99.90
19999;DHT22;10160;50.926;4.374;2022-11-13T09:51:13;10.80;99.90
19999;DHT22;10160;50.926;4.374;2022-11-13T09:53:41;10.90;99.90
19999;DHT22;10160;50.926;4.374;2022-11-13T10:01:27;12.20;99.90
19999;DHT22;10160;50.926;4.374;2022-11-13T10:03:59;13.30;99.90
19999;DHT22;10160;50.926;4.374;2022-11-13T10:09:35;15.10;99.90
19999;DHT22;10160;50.926;4.374;2022-11-13T10:12:05;15.70;99.90
19999;DHT22;10160;50.926;4.374;2022-11-13T10:14:41;17.20;99.90
19999;DHT22;10160;50.926;4.374;2022-11-13T10:17:36;17.80;99.90
19999;DHT22;10160;50.926;4.374;2022-11-13T10:22:40;19.40;99.90
19999;DHT22;10160;50.926;4.374;2022-11-13T10:25:35;22.50;99.90
19999;DHT22;10160;50.926;4.374;2022-11-13T10:28:04;22.50;99.90
19999;DHT22;10160;50.926;4.374;2022-11-13T10:30:35;21.80;99.90
19999;DHT22;10160;50.926;4.374;2022-11-13T10:33:06;23.40;99.90
19999;DHT22;10160;50.926;4.374;2022-11-13T10:40:50;23.00;99.90
19999;DHT22;10160;50.926;4.374;2022-11-13T10:43:19;24.10;99.80
19999;DHT22;10160;50.926;4.374;2022-11-13T10:46:02;22.60;99.90
19999;DHT22;10160;50.926;4.374;2022-11-13T10:48:29;22.90;99.90
19999;DHT22;10160;50.926;4.374;2022-11-13T10:51:01;22.80;99.90
19999;DHT22;10160;50.926;4.374;2022-11-13T10:53:39;24.40;97.30
19999;DHT22;10160;50.926;4.374;2022-11-13T10:56:20;22.30;99.90
19999;DHT22;10160;50.926;4.374;2022-11-13T10:59:12;24.60;97.10
19999;DHT22;10160;50.926;4.374;2022-11-13T11:01:39;25.70;94.70
19999;DHT22;10160;50.926;4.374;2022-11-13T11:04:09;25.70;91.10
19999;DHT22;10160;50.926;4.374;2022-11-13T11:06:38;26.80;90.00
19999;DHT22;10160;50.926;4.374;2022-11-13T11:09:26;28.80;83.40
19999;DHT22;10160;50.926;4.374;2022-11-13T11:12:10;29.50;74.20
19999;DHT22;10160;50.926;4.374;2022-11-13T11:20:20;26.80;75.70
19999;DHT22;10160;50.926;4.374;2022-11-13T11:23:13;28.40;75.00
19999;DHT22;10160;50.926;4.374;2022-11-13T11:25:39;27.30;75.40
19999;DHT22;10160;50.926;4.374;2022-11-13T11:28:16;25.40;79.40
19999;DHT22;10160;50.926;4.374;2022-11-13T11:30:52;25.10;82.00
19999;DHT22;10160;50.926;4.374;2022-11-13T11:33:50;26.70;78.80
19999;DHT22;10160;50.926;4.374;2022-11-13T11:41:32;28.90;72.30
19999;DHT22;10160;50.926;4.374;2022-11-13T11:44:13;28.80;68.00
19999;DHT22;10160;50.926;4.374;2022-11-13T11:46:42;26.10;75.50
19999;DHT22;10160;50.926;4.374;2022-11-13T11:49:09;27.40;71.50
19999;DHT22;10160;50.926;4.374;2022-11-13T11:57:09;25.40;81.10
19999;DHT22;10160;50.926;4.374;2022-11-13T11:59:46;22.70;90.80
19999;DHT22;10160;50.926;4.374;2022-11-13T12:05:21;23.30;96.10
19999;DHT22;10160;50.926;4.374;2022-11-13T12:07:57;25.80;89.50
19999;DHT22;10160;50.926;4.374;2022-11-13T12:10:51;26.50;81.60
19999;DHT22;10160;50.926;4.374;2022-11-13T12:13:30;24.60;87.10
19999;DHT22;10160;50.926;4.374;2022-11-13T12:22:04;28.20;74.60
19999;DHT22;10160;50.926;4.374;2022-11-13T12:35:19;26.40;73.30
19999;DHT22;10160;50.926;4.374;2022-11-13T12:43:26;24.50;82.80
19999;DHT22;10160;50.926;4.374;2022-11-13T12:45:57;25.10;78.80
19999;DHT22;10160;50.926;4.374;2022-11-13T12:48:39;25.80;77.70
19999;DHT22;10160;50.926;4.374;2022-11-13T12:51:08;27.00;74.50
19999;DHT22;10160;50.926;4.374;2022-11-13T12:54:01;26.90;76.30
19999;DHT22;10160;50.926;4.374;2022-11-13T12:59:26;28.10;67.50
19999;DHT22;10160;50.926;4.374;2022-11-13T13:02:25;29.30;67.20
19999;DHT22;10160;50.926;4.374;2022-11-13T13:04:58;26.40;71.10
19999;DHT22;10160;50.926;4.374;2022-11-13T13:13:02;28.80;64.90
19999;DHT22;10160;50.926;4.374;2022-11-13T13:15:42;29.90;62.30
19999;DHT22;10160;50.926;4.374;2022-11-13T13:18:26;27.90;61.00
19999;DHT22;10160;50.926;4.374;2022-11-13T13:21:14;26.80;65.70
19999;DHT22;10160;50.926;4.374;2022-11-13T13:23:46;25.70;68.20
19999;DHT22;10160;50.926;4.374;2022-11-13T13:28:39;23.90;79.10
19999;DHT22;10160;50.926;4.374;2022-11-13T13:36:48;25.50;81.00
19999;DHT22;10160;50.926;4.374;2022-11-13T13:39:18;26.40;75.20
19999;DHT22;10160;50.926;4.374;2022-11-13T13:47:43;27.50;68.80
19999;DHT22;10160;50.926;4.374;2022-11-13T13:50:33;27.70;68.80
19999;DHT22;10160;50.926;4.374;2022-11-13T13:53:04;26.70;68.80
19999;DHT22;10160;50.926;4.374;2022-11-13T13:55:32;25.20;73.30
19999;DHT22;10160;50.926;4.374;2022-11-13T13:58:00;26.80;75.80
19999;DHT22;10160;50.926;4.374;2022-11-13T14:00:27;28.50;70.90
19999;DHT22;10160;50.926;4.374;2022-11-13T14:02:53;29.80;67.00
19999;DHT22;10160;50.926;4.374;2022-11-13T14:05:30;30.40;63.30
19999;DHT22;10160;50.926;4.374;2022-11-13T14:07:56;30.50;62.70
19999;DHT22;10160;50.926;4.374;2022-11-13T14:10:25;28.50;63.50
19999;DHT22;10160;50.926;4.374;2022-11-13T14:12:56;27.90;66.70
19999;DHT22;10160;50.926;4.374;2022-11-13T14:15:24;27.80;65.70
19999;DHT22;10160;50.926;4.374;2022-11-13T14:17:50;28.20;67.50
19999;DHT22;10160;50.926;4.374;2022-11-13T14:20:16;28.90;65.10
19999;DHT22;10160;50.926;4.374;2022-11-13T14:22:44;28.90;65.00
19999;DHT22;10160;50.926;4.374;2022-11-13T14:25:26;28.70;65.00
19999;DHT22;10160;50.926;4.374;2022-11-13T14:27:52;29.50;66.10
19999;DHT22;10160;50.926;4.374;2022-11-13T14:30:26;29.30;66.00
19999;DHT22;10160;50.926;4.374;2022-11-13T14:32:52;29.80;63.80
19999;DHT22;10160;50.926;4.374;2022-11-13T14:35:21;29.20;63.00
19999;DHT22;10160;50.926;4.374;2022-11-13T14:37:47;28.40;64.90
19999;DHT22;10160;50.926;4.374;2022-11-13T14:40:28;27.20;69.20
19999;DHT22;10160;50.926;4.374;2022-11-13T14:42:58;27.00;70.70
19999;DHT22;10160;50.926;4.374;2022-11-13T14:45:28;28.00;71.30
19999;DHT22;10160;50.926;4.374;2022-11-13T14:48:02;28.40;69.20
19999;DHT22;10160;50.926;4.374;2022-11-13T14:50:34;28.00;69.00
19999;DHT22;10160;50.926;4.374;2022-11-13T14:53:07;27.50;71.20
19999;DHT22;10160;50.926;4.374;2022-11-13T14:55:37;27.70;70.40
19999;DHT22;10160;50.926;4.374;2022-11-13T14:58:03;27.50;71.80
19999;DHT22;10160;50.926;4.374;2022-11-13T15:00:37;27.70;73.00
19999;DHT22;10160;50.926;4.374;2022-11-13T15:03:04;28.50;72.30
19999;DHT22;10160;50.926;4.374;2022-11-13T15:05:31;28.70;70.70
19999;DHT22;10160;50.926;4.374;2022-11-13T15:07:58;28.50;70.80
19999;DHT22;10160;50.926;4.374;2022-11-13T15:10:26;28.10;72.20
19999;DHT22;10160;50.926;4.374;2022-11-13T15:12:52;27.80;73.30
19999;DHT22;10160;50.926;4.374;2022-11-13T15:15:25;27.40;73.90
19999;DHT22;10160;50.926;4.374;2022-11-13T15:17:52;27.20;75.00
19999;DHT22;10160;50.926;4.374;2022-11-13T15:20:22;26.70;75.80
19999;DHT22;10160;50.926;4.374;2022-11-13T15:22:50;26.20;77.40
19999;DHT22;10160;50.926;4.374;2022-11-13T15:25:18;25.80;78.60
19999;DHT22;10160;50.926;4.374;2022-11-13T15:27:44;25.30;80.40
19999;DHT22;10160;50.926;4.374;2022-11-13T15:30:10;24.60;83.10
19999;DHT22;10160;50.926;4.374;2022-11-13T15:32:36;23.80;86.70
19999;DHT22;10160;50.926;4.374;2022-11-13T15:35:03;23.00;90.90
19999;DHT22;10160;50.926;4.374;2022-11-13T15:37:29;22.20;93.10
19999;DHT22;10160;50.926;4.374;2022-11-13T15:39:55;21.20;96.60
19999;DHT22;10160;50.926;4.374;2022-11-13T15:42:26;20.40;99.90
19999;DHT22;10160;50.926;4.374;2022-11-13T15:44:52;19.60;99.90
19999;DHT22;10160;50.926;4.374;2022-11-13T15:47:32;19.00;99.90
19999;DHT22;10160;50.926;4.374;2022-11-13T15:49:59;18.10;99.90
19999;DHT22;10160;50.926;4.374;2022-11-13T15:52:27;17.50;99.90
19999;DHT22;10160;50.926;4.374;2022-11-13T15:54:54;17.00;99.90
19999;DHT22;10160;50.926;4.374;2022-11-13T15:57:23;16.70;99.90
19999;DHT22;10160;50.926;4.374;2022-11-13T15:59:49;16.50;99.90
19999;DHT22;10160;50.926;4.374;2022-11-13T16:02:15;16.20;99.90
19999;DHT22;10160;50.926;4.374;2022-11-13T16:04:41;15.90;99.90
19999;DHT22;10160;50.926;4.374;2022-11-13T16:07:19;15.80;99.90
19999;DHT22;10160;50.926;4.374;2022-11-13T16:09:46;15.70;99.90
19999;DHT22;10160;50.926;4.374;2022-11-13T16:12:12;15.50;99.90
19999;DHT22;10160;50.926;4.374;2022-11-13T16:14:39;15.30;99.90
19999;DHT22;10160;50.926;4.374;2022-11-13T16:17:10;15.10;99.90
19999;DHT22;10160;50.926;4.374;2022-11-13T16:19:36;14.90;99.90
19999;DHT22;10160;50.926;4.374;2022-11-13T16:22:02;14.70;99.90
19999;DHT22;10160;50.926;4.374;2022-11-13T16:24:28;14.40;99.90
19999;DHT22;10160;50.926;4.374;2022-11-13T16:26:56;14.20;99.90
19999;DHT22;10160;50.926;4.374;2022-11-13T16:29:23;14.20;99.90
19999;DHT22;10160;50.926;4.374;2022-11-13T16:31:49;14.00;99.90
19999;DHT22;10160;50.926;4.374;2022-11-13T16:34:15;14.10;99.90
19999;DHT22;10160;50.926;4.374;2022-11-13T16:36:40;13.90;99.90
19999;DHT22;10160;50.926;4.374;2022-11-13T16:39:13;14.10;99.90
19999;DHT22;10160;50.926;4.374;2022-11-13T16:41:39;13.90;99.90
19999;DHT22;10160;50.926;4.374;2022-11-13T16:44:05;14.00;99.90
19999;DHT22;10160;50.926;4.374;2022-11-13T16:46:32;13.80;99.90
19999;DHT22;10160;50.926;4.374;2022-11-13T16:48:59;13.90;99.90
19999;DHT22;10160;50.926;4.374;2022-11-13T16:51:24;13.60;99.90
19999;DHT22;10160;50.926;4.374;2022-11-13T16:53:50;13.50;99.90
19999;DHT22;10160;50.926;4.374;2022-11-13T16:58:45;13.40;99.90
19999;DHT22;10160;50.926;4.374;2022-11-13T17:01:18;13.00;99.90
19999;DHT22;10160;50.926;4.374;2022-11-13T17:03:44;12.70;99.90
19999;DHT22;10160;50.926;4.374;2022-11-13T17:06:31;12.60;99.90
19999;DHT22;10160;50.926;4.374;2022-11-13T17:08:58;12.60;99.90
19999;DHT22;10160;50.926;4.374;2022-11-13T17:11:25;12.40;99.90
19999;DHT22;10160;50.926;4.374;2022-11-13T17:13:59;12.40;99.90